Time;durP1;ratioP1;P1;durP2;ratioP2;P2;SDS_P1;SDS_P2;PMS_P1;PMS_P2;Temp;Humidity;BMP_temperature;BMP_pressure;BME280_temperature;BME280_humidity;BME280_pressure;Samples;Min_cycle;Max_cycle;Signal;HPM_P1;HPM_P2
2022/12/14 00:02:06;;;;;;;1999.90;999.90;;;-0.40;99.90;;;;;;5019205;28;21038;-70
2022/12/14 00:04:34;;;;;;;1999.90;999.90;;;-0.40;99.90;;;;;;5006221;28;20489;-70
2022/12/14 00:07:01;;;;;;;1999.90;999.90;;;-0.30;99.90;;;;;;5006272;28;20454;-70
2022/12/14 00:09:27;;;;;;;1999.90;999.90;;;-0.20;99.90;;;;;;5005821;28;20831;-70
2022/12/14 00:11:54;;;;;;;1999.90;999.90;;;-0.20;99.90;;;;;;5005567;28;20457;-70
2022/12/14 00:14:21;;;;;;;1999.90;999.90;;;-0.20;99.90;;;;;;5006633;28;20446;-70
2022/12/14 00:16:48;;;;;;;1999.90;999.90;;;-0.20;99.90;;;;;;5006766;28;20556;-71
2022/12/14 00:19:15;;;;;;;1999.90;999.90;;;-0.20;99.90;;;;;;5007593;28;20446;-70
2022/12/14 00:21:43;;;;;;;1999.90;999.90;;;-0.30;99.90;;;;;;5011930;28;20488;-70
2022/12/14 00:24:10;;;;;;;1999.90;999.90;;;-0.30;99.90;;;;;;5011523;28;20490;-70
2022/12/14 00:26:37;;;;;;;1999.90;999.90;;;-0.20;99.90;;;;;;5011374;28;20540;-70
2022/12/14 00:29:03;;;;;;;1999.90;999.90;;;-0.20;99.90;;;;;;5011462;28;20747;-71
2022/12/14 00:31:31;;;;;;;1999.90;999.90;;;-0.30;99.90;;;;;;5011744;28;20457;-71
2022/12/14 00:33:59;;;;;;;1999.90;999.90;;;-0.30;99.90;;;;;;5011341;28;20847;-70
2022/12/14 00:36:26;;;;;;;1999.90;999.90;;;-0.30;99.90;;;;;;5011270;28;20454;-70
2022/12/14 00:38:54;;;;;;;1999.90;999.90;;;-0.20;99.90;;;;;;5011045;28;20494;-70
2022/12/14 00:41:21;;;;;;;1999.90;999.90;;;-0.20;99.90;;;;;;5011276;28;20979;-70
2022/12/14 00:43:48;;;;;;;1999.90;999.90;;;-0.20;99.90;;;;;;5011120;28;20482;-70
2022/12/14 00:46:15;;;;;;;1999.90;999.90;;;-0.10;99.90;;;;;;5011293;28;20461;-70
2022/12/14 00:48:42;;;;;;;1999.90;999.90;;;-0.20;99.90;;;;;;5010562;28;20449;-70
2022/12/14 00:51:09;;;;;;;1999.90;999.90;;;-0.20;99.90;;;;;;5018884;28;20445;-70
2022/12/14 00:53:36;;;;;;;1999.90;999.90;;;-0.20;99.90;;;;;;5030358;28;20471;-70
2022/12/14 00:56:10;;;;;;;1999.90;999.90;;;-0.10;99.90;;;;;;5030831;28;20453;-71
2022/12/14 00:58:39;;;;;;;1999.90;999.90;;;-0.10;99.90;;;;;;5011651;28;20456;-70
2022/12/14 01:01:08;;;;;;;1999.90;999.90;;;-0.10;99.90;;;;;;5010767;28;20891;-70
2022/12/14 01:03:35;;;;;;;1999.90;999.90;;;-0.10;99.90;;;;;;5010646;28;20901;-71
2022/12/14 01:06:02;;;;;;;1999.90;999.90;;;-0.10;99.90;;;;;;5010547;28;20450;-70
2022/12/14 01:08:34;;;;;;;1999.90;999.90;;;-0.10;99.90;;;;;;5010508;28;20450;-71
2022/12/14 01:11:06;;;;;;;1999.90;999.90;;;-0.10;99.90;;;;;;5010547;28;20485;-71
2022/12/14 01:13:33;;;;;;;1999.90;999.90;;;-0.20;99.90;;;;;;5010489;28;20477;-69
2022/12/14 01:16:04;;;;;;;1999.90;999.90;;;0.00;99.90;;;;;;5010318;28;20533;-70
2022/12/14 01:18:34;;;;;;;1999.90;999.90;;;-0.10;99.90;;;;;;5006635;28;20463;-69
2022/12/14 01:21:09;;;;;;;1999.90;999.90;;;-0.10;99.90;;;;;;5009831;28;20453;-69
2022/12/14 01:23:36;;;;;;;1999.90;999.90;;;-0.10;99.90;;;;;;5010647;28;20473;-69
2022/12/14 01:26:03;;;;;;;1999.90;999.90;;;0.00;99.90;;;;;;5010142;28;20445;-70
2022/12/14 01:28:33;;;;;;;1999.90;999.90;;;0.00;99.90;;;;;;5010109;28;20525;-69
2022/12/14 01:31:04;;;;;;;1999.90;999.90;;;0.00;99.90;;;;;;5009302;28;20516;-70
2022/12/14 01:33:31;;;;;;;1999.90;999.90;;;0.00;99.90;;;;;;5010286;28;20466;-70
2022/12/14 01:36:00;;;;;;;1999.90;999.90;;;-0.10;99.90;;;;;;5010139;28;20438;-70
2022/12/14 01:38:27;;;;;;;1999.90;999.90;;;-0.10;99.90;;;;;;5009831;28;20453;-68
2022/12/14 01:40:57;;;;;;;1999.90;999.90;;;0.00;99.90;;;;;;5010246;28;20446;-69
2022/12/14 01:43:24;;;;;;;1999.90;999.90;;;0.00;99.90;;;;;;5009858;28;20475;-69
2022/12/14 01:45:55;;;;;;;1999.90;999.90;;;0.10;99.90;;;;;;5010294;28;20494;-69
2022/12/14 01:48:23;;;;;;;1999.90;999.90;;;0.10;99.90;;;;;;5010152;28;20528;-70
2022/12/14 01:50:50;;;;;;;1999.90;999.90;;;0.00;99.90;;;;;;5010309;28;20445;-70
2022/12/14 01:53:22;;;;;;;1999.90;999.90;;;0.10;99.90;;;;;;5010018;28;20478;-70
2022/12/14 01:55:54;;;;;;;1999.90;999.90;;;0.10;99.90;;;;;;5010228;28;20454;-69
2022/12/14 01:58:23;;;;;;;1999.90;999.90;;;0.00;99.90;;;;;;5009679;28;20449;-70
2022/12/14 02:00:54;;;;;;;1999.90;999.90;;;0.00;99.90;;;;;;5010581;28;20454;-70
2022/12/14 02:03:25;;;;;;;1999.90;999.90;;;-0.10;99.90;;;;;;5010400;28;20473;-70
2022/12/14 02:05:55;;;;;;;1999.90;999.90;;;0.00;99.90;;;;;;5010149;28;20581;-69
2022/12/14 02:08:24;;;;;;;1999.90;999.90;;;0.00;99.90;;;;;;5010649;28;20528;-69
2022/12/14 02:10:52;;;;;;;1999.90;999.90;;;0.10;99.90;;;;;;5010145;28;20457;-69
2022/12/14 02:13:23;;;;;;;1999.90;999.90;;;0.10;99.90;;;;;;5010406;28;20478;-69
2022/12/14 02:15:50;;;;;;;1999.90;999.90;;;0.10;99.90;;;;;;5010191;28;20462;-69
2022/12/14 02:18:21;;;;;;;1999.90;999.90;;;0.20;99.90;;;;;;5010145;28;20472;-67
2022/12/14 02:21:01;;;;;;;1999.90;999.90;;;0.10;99.90;;;;;;5009630;28;20446;-69
2022/12/14 02:23:54;;;;;;;1999.90;999.90;;;0.20;99.90;;;;;;5009889;28;20472;-69
2022/12/14 02:26:53;;;;;;;1999.90;999.90;;;0.20;99.90;;;;;;5005864;28;20454;-69
2022/12/14 02:29:48;;;;;;;1999.90;999.90;;;0.20;99.90;;;;;;5002498;28;20450;-70
2022/12/14 02:32:36;;;;;;;1999.90;999.90;;;0.20;99.90;;;;;;5008554;28;20469;-69
2022/12/14 02:35:14;;;;;;;1999.90;999.90;;;0.10;99.90;;;;;;5009125;28;20560;-69
2022/12/14 02:37:51;;;;;;;1999.90;999.90;;;0.10;99.90;;;;;;5008486;28;20452;-68
2022/12/14 02:40:28;;;;;;;1999.90;999.90;;;0.10;99.90;;;;;;5008669;28;20450;-69
2022/12/14 02:43:05;;;;;;;1999.90;999.90;;;0.10;99.90;;;;;;5008376;28;20476;-69
2022/12/14 02:45:39;;;;;;;1999.90;999.90;;;0.10;99.90;;;;;;5008967;28;20491;-69
2022/12/14 02:48:12;;;;;;;1999.90;999.90;;;0.20;99.90;;;;;;5008769;28;20445;-69
2022/12/14 02:50:47;;;;;;;1999.90;999.90;;;0.10;99.90;;;;;;5009031;28;20458;-70
2022/12/14 02:53:20;;;;;;;1999.90;999.90;;;0.20;99.90;;;;;;5008728;28;20469;-71
2022/12/14 02:55:50;;;;;;;1999.90;999.90;;;0.20;99.90;;;;;;5008635;28;20467;-70
2022/12/14 02:58:22;;;;;;;1999.90;999.90;;;0.20;99.90;;;;;;5008226;28;20449;-70
2022/12/14 03:00:51;;;;;;;1999.90;999.90;;;0.10;99.90;;;;;;5008678;28;20454;-69
2022/12/14 03:03:18;;;;;;;1999.90;999.90;;;0.00;99.90;;;;;;5008360;28;20473;-70
2022/12/14 03:05:55;;;;;;;1999.90;999.90;;;0.00;99.90;;;;;;5008635;28;20874;-68
2022/12/14 03:08:22;;;;;;;1999.90;999.90;;;0.00;99.90;;;;;;5008438;28;20863;-68
2022/12/14 03:10:54;;;;;;;1999.90;999.90;;;0.00;99.90;;;;;;5008474;28;20458;-68
2022/12/14 03:13:25;;;;;;;1999.90;999.90;;;0.00;99.90;;;;;;5008612;28;20469;-69
2022/12/14 03:15:58;;;;;;;1999.90;999.90;;;0.00;99.90;;;;;;5008477;28;20454;-70
2022/12/14 03:18:27;;;;;;;1999.90;999.90;;;0.10;99.90;;;;;;5008244;28;20484;-69
2022/12/14 03:20:55;;;;;;;1999.90;999.90;;;0.20;99.90;;;;;;5008174;28;20939;-69
2022/12/14 03:23:26;;;;;;;1999.90;999.90;;;0.20;99.90;;;;;;5008350;28;20470;-69
2022/12/14 03:25:59;;;;;;;1999.90;999.90;;;0.20;99.90;;;;;;5007795;28;20478;-67
2022/12/14 03:28:31;;;;;;;1999.90;999.90;;;0.30;99.90;;;;;;5008002;28;21050;-68
2022/12/14 03:31:04;;;;;;;1999.90;999.90;;;0.20;99.90;;;;;;5007991;28;21003;-69
2022/12/14 03:33:33;;;;;;;1999.90;999.90;;;0.10;99.90;;;;;;5008109;28;20476;-70
2022/12/14 03:36:06;;;;;;;1999.90;999.90;;;0.10;99.90;;;;;;5007801;28;20458;-70
2022/12/14 03:38:38;;;;;;;1999.90;999.90;;;0.20;99.90;;;;;;5007628;28;20468;-70
2022/12/14 03:41:15;;;;;;;1999.90;999.90;;;0.20;99.90;;;;;;5007945;28;20537;-70
2022/12/14 03:43:56;;;;;;;1999.90;999.90;;;0.10;99.90;;;;;;5008085;28;20473;-68
2022/12/14 03:46:34;;;;;;;1999.90;999.90;;;0.10;99.90;;;;;;5007805;28;20485;-69
2022/12/14 03:49:12;;;;;;;1999.90;999.90;;;0.10;99.90;;;;;;5007810;28;20464;-71
2022/12/14 03:51:45;;;;;;;1999.90;999.90;;;0.10;99.90;;;;;;5008027;28;20481;-69
2022/12/14 03:54:20;;;;;;;1999.90;999.90;;;0.10;99.90;;;;;;5007055;28;20474;-70
2022/12/14 03:56:49;;;;;;;1999.90;999.90;;;0.20;99.90;;;;;;5008050;28;20472;-70
2022/12/14 03:59:20;;;;;;;1999.90;999.90;;;0.20;99.90;;;;;;5007061;28;20822;-69
2022/12/14 04:01:58;;;;;;;1999.90;999.90;;;0.30;99.90;;;;;;5007853;28;20963;-69
2022/12/14 04:04:30;;;;;;;1999.90;999.90;;;0.30;99.90;;;;;;5007475;28;20449;-70
2022/12/14 04:07:04;;;;;;;1999.90;999.90;;;0.30;99.90;;;;;;5007816;28;20901;-70
2022/12/14 04:09:35;;;;;;;1999.90;999.90;;;0.30;99.90;;;;;;5007235;28;20533;-69
2022/12/14 04:20:43;;;;;;;1999.90;999.90;;;0.20;99.90;;;;;;4971374;28;20442;-69
2022/12/14 04:23:14;;;;;;;1999.90;999.90;;;0.20;99.90;;;;;;5007503;28;20470;-69
2022/12/14 04:26:03;;;;;;;1999.90;999.90;;;0.00;99.90;;;;;;5007338;28;20869;-70
2022/12/14 04:31:23;;;;;;;1999.90;999.90;;;0.10;99.90;;;;;;5007471;28;20496;-69
2022/12/14 04:33:55;;;;;;;1999.90;999.90;;;0.10;99.90;;;;;;5007520;28;20470;-68
2022/12/14 04:36:27;;;;;;;1999.90;999.90;;;0.10;99.90;;;;;;5007548;28;20438;-71
2022/12/14 04:39:00;;;;;;;1999.90;999.90;;;0.20;99.90;;;;;;5007100;28;20491;-69
2022/12/14 04:41:30;;;;;;;1999.90;999.90;;;0.10;99.90;;;;;;5007254;28;20449;-69
2022/12/14 04:44:02;;;;;;;1999.90;999.90;;;0.10;99.90;;;;;;5007492;28;20474;-69
2022/12/14 04:46:32;;;;;;;1999.90;999.90;;;0.10;99.90;;;;;;5007148;28;20493;-68
2022/12/14 04:49:04;;;;;;;1999.90;999.90;;;0.10;99.90;;;;;;5006877;28;20454;-69
2022/12/14 04:51:36;;;;;;;1999.90;999.90;;;0.20;99.90;;;;;;5007297;28;20461;-70
2022/12/14 04:54:12;;;;;;;1999.90;999.90;;;0.20;99.90;;;;;;5007183;28;20473;-69
2022/12/14 04:56:44;;;;;;;1999.90;999.90;;;0.30;99.90;;;;;;5007228;28;20453;-69
2022/12/14 04:59:11;;;;;;;1999.90;999.90;;;0.30;99.90;;;;;;5006854;28;20454;-69
2022/12/14 05:01:49;;;;;;;1999.90;999.90;;;0.30;99.90;;;;;;5007000;28;20833;-69
2022/12/14 05:04:29;;;;;;;1999.90;999.90;;;0.30;99.90;;;;;;5007143;28;20452;-69
2022/12/14 05:07:06;;;;;;;1999.90;999.90;;;0.30;99.90;;;;;;5010375;28;20998;-69
2022/12/14 05:09:39;;;;;;;1999.90;999.90;;;0.30;99.90;;;;;;5010247;28;20449;-68
2022/12/14 05:12:12;;;;;;;1999.90;999.90;;;0.30;99.90;;;;;;5010898;28;20508;-68
2022/12/14 05:14:43;;;;;;;1999.90;999.90;;;0.20;99.90;;;;;;5010787;28;20449;-69
2022/12/14 05:17:10;;;;;;;1999.90;999.90;;;0.20;99.90;;;;;;5010543;28;21301;-70
2022/12/14 05:19:44;;;;;;;1999.90;999.90;;;0.20;99.90;;;;;;5010074;28;20454;-69
2022/12/14 05:22:11;;;;;;;1999.90;999.90;;;0.20;99.90;;;;;;5010577;28;20484;-70
2022/12/14 05:24:38;;;;;;;1999.90;999.90;;;0.20;99.90;;;;;;5007987;28;20874;-69
2022/12/14 05:27:05;;;;;;;1999.90;999.90;;;0.20;99.90;;;;;;5009173;28;20481;-69
2022/12/14 05:29:32;;;;;;;1999.90;999.90;;;0.20;99.90;;;;;;5008869;28;20457;-68
2022/12/14 05:31:59;;;;;;;1999.90;999.90;;;0.20;99.90;;;;;;5009512;28;20496;-69
2022/12/14 05:34:26;;;;;;;1999.90;999.90;;;0.30;99.90;;;;;;5009672;28;20458;-69
2022/12/14 05:36:54;;;;;;;1999.90;999.90;;;0.30;99.90;;;;;;5009257;28;20939;-68
2022/12/14 05:39:21;;;;;;;1999.90;999.90;;;0.30;99.90;;;;;;5009866;28;20844;-70
2022/12/14 05:41:48;;;;;;;1999.90;999.90;;;0.30;99.90;;;;;;5009464;28;20827;-68
2022/12/14 05:44:14;;;;;;;1999.90;999.90;;;0.40;99.90;;;;;;5004318;28;20473;-70
2022/12/14 05:46:41;;;;;;;1999.90;999.90;;;0.40;99.90;;;;;;5009618;28;20485;-70
2022/12/14 05:49:08;;;;;;;1999.90;999.90;;;0.40;99.90;;;;;;5009614;28;20442;-68
2022/12/14 05:51:35;;;;;;;1999.90;999.90;;;0.30;99.90;;;;;;5009705;28;20918;-68
2022/12/14 05:54:05;;;;;;;1999.90;999.90;;;0.30;99.90;;;;;;5007986;28;20935;-68
2022/12/14 05:56:32;;;;;;;1999.90;999.90;;;0.30;99.90;;;;;;5002486;28;20442;-68
2022/12/14 05:58:58;;;;;;;1999.90;999.90;;;0.20;99.90;;;;;;5008777;28;20461;-68
2022/12/14 06:01:25;;;;;;;1999.90;999.90;;;0.30;99.90;;;;;;5008164;28;20449;-68
2022/12/14 06:03:52;;;;;;;1999.90;999.90;;;0.30;99.90;;;;;;5009171;28;20854;-71
2022/12/14 06:06:20;;;;;;;1999.90;999.90;;;0.30;99.90;;;;;;5006353;28;20607;-68
2022/12/14 06:08:47;;;;;;;1999.90;999.90;;;0.30;99.90;;;;;;5006338;28;20458;-69
2022/12/14 06:11:17;;;;;;;1999.90;999.90;;;0.30;99.90;;;;;;5002599;28;20540;-69
2022/12/14 06:13:45;;;;;;;1999.90;999.90;;;0.30;99.90;;;;;;5009492;28;20995;-68
2022/12/14 06:16:13;;;;;;;1999.90;999.90;;;0.20;99.90;;;;;;5008853;28;20460;-69
2022/12/14 06:18:45;;;;;;;1999.90;999.90;;;0.20;99.90;;;;;;5005665;28;21038;-69
2022/12/14 06:21:12;;;;;;;1999.90;999.90;;;0.20;99.90;;;;;;5008173;28;20489;-69
2022/12/14 06:23:39;;;;;;;1999.90;999.90;;;0.20;99.90;;;;;;5008169;28;20466;-68
2022/12/14 06:26:07;;;;;;;1999.90;999.90;;;0.20;99.90;;;;;;5008863;28;20580;-68
2022/12/14 06:28:35;;;;;;;1999.90;999.90;;;0.20;99.90;;;;;;5009017;28;20452;-68
2022/12/14 06:31:03;;;;;;;1999.90;999.90;;;0.20;99.90;;;;;;5009369;28;20454;-68
2022/12/14 06:33:31;;;;;;;1999.90;999.90;;;0.20;99.90;;;;;;5009510;28;20473;-68
2022/12/14 06:35:58;;;;;;;1999.90;999.90;;;0.20;99.90;;;;;;5008849;28;20600;-68
2022/12/14 06:38:25;;;;;;;1999.90;999.90;;;0.20;99.90;;;;;;5008568;28;20449;-69
2022/12/14 06:40:52;;;;;;;1999.90;999.90;;;0.30;99.90;;;;;;5009064;28;20450;-67
2022/12/14 06:43:19;;;;;;;1999.90;999.90;;;0.30;99.90;;;;;;5009047;28;20480;-69
2022/12/14 06:45:47;;;;;;;1999.90;999.90;;;0.30;99.90;;;;;;5008711;28;20486;-68
2022/12/14 06:48:14;;;;;;;1999.90;999.90;;;0.10;99.90;;;;;;5009130;28;20450;-69
2022/12/14 06:50:41;;;;;;;1999.90;999.90;;;0.10;99.90;;;;;;5008366;28;20464;-69
2022/12/14 06:53:11;;;;;;;1999.90;999.90;;;0.10;99.90;;;;;;5008455;28;21003;-69
2022/12/14 06:55:38;;;;;;;1999.90;999.90;;;0.00;99.90;;;;;;5008748;28;20454;-68
2022/12/14 06:58:04;;;;;;;1999.90;999.90;;;0.00;99.90;;;;;;5007461;28;20485;-69
2022/12/14 07:00:31;;;;;;;1999.90;999.90;;;0.10;99.90;;;;;;5008529;28;20450;-68
2022/12/14 07:02:59;;;;;;;1999.90;999.90;;;0.10;99.90;;;;;;5008617;28;20458;-69
2022/12/14 07:05:26;;;;;;;1999.90;999.90;;;0.10;99.90;;;;;;5008561;28;20454;-68
2022/12/14 07:07:53;;;;;;;1999.90;999.90;;;0.10;99.90;;;;;;5008523;28;20458;-69
2022/12/14 07:10:19;;;;;;;1999.90;999.90;;;0.00;99.90;;;;;;5008245;28;20460;-68
2022/12/14 07:12:46;;;;;;;1999.90;999.90;;;-0.10;99.90;;;;;;5008206;28;20465;-68
2022/12/14 07:15:13;;;;;;;1999.90;999.90;;;0.00;99.90;;;;;;5008200;28;20446;-68
2022/12/14 07:17:40;;;;;;;1999.90;999.90;;;0.00;99.90;;;;;;5008076;28;20458;-69
2022/12/14 07:20:09;;;;;;;1999.90;999.90;;;0.00;99.90;;;;;;5005141;28;20572;-69
2022/12/14 07:22:37;;;;;;;1999.90;999.90;;;0.00;99.90;;;;;;5005660;28;20492;-67
2022/12/14 07:25:05;;;;;;;1999.90;999.90;;;0.00;99.90;;;;;;5006806;28;20458;-68
2022/12/14 07:27:31;;;;;;;1999.90;999.90;;;0.10;99.90;;;;;;5018402;28;20489;-68
2022/12/14 07:29:58;;;;;;;1999.90;999.90;;;0.20;99.90;;;;;;5006693;28;20457;-68
2022/12/14 07:32:25;;;;;;;1999.90;999.90;;;0.30;99.90;;;;;;4998506;28;20463;-68
2022/12/14 07:34:52;;;;;;;1999.90;999.90;;;0.20;99.90;;;;;;4991806;28;20460;-68
2022/12/14 07:37:20;;;;;;;1999.90;999.90;;;0.20;99.90;;;;;;5008614;28;20438;-69
2022/12/14 07:39:47;;;;;;;1999.90;999.90;;;0.30;99.90;;;;;;5014954;28;20441;-69
2022/12/14 07:42:13;;;;;;;1999.90;999.90;;;0.30;99.90;;;;;;5007219;28;20477;-69
2022/12/14 07:44:40;;;;;;;1999.90;999.90;;;0.30;99.90;;;;;;5010984;28;20998;-69
2022/12/14 07:47:07;;;;;;;1999.90;999.90;;;0.30;99.90;;;;;;5008091;28;20489;-69
2022/12/14 07:49:34;;;;;;;1999.90;999.90;;;0.30;99.90;;;;;;5005303;28;20449;-69
2022/12/14 07:52:00;;;;;;;1999.90;999.90;;;0.30;99.90;;;;;;5009135;28;20491;-68
2022/12/14 07:54:29;;;;;;;1999.90;999.90;;;0.40;99.90;;;;;;5009116;28;20441;-69
2022/12/14 07:56:56;;;;;;;1999.90;999.90;;;0.50;99.90;;;;;;5027428;28;20472;-69
2022/12/14 07:59:23;;;;;;;1999.90;999.90;;;0.60;99.90;;;;;;5027280;28;20449;-69
2022/12/14 08:01:51;;;;;;;1999.90;999.90;;;0.70;99.90;;;;;;5027423;28;20464;-69
2022/12/14 08:04:19;;;;;;;1999.90;999.90;;;0.70;99.90;;;;;;5015704;28;20452;-69
2022/12/14 08:06:47;;;;;;;1999.90;999.90;;;0.70;99.90;;;;;;5005817;28;20861;-69
2022/12/14 08:09:15;;;;;;;1999.90;999.90;;;0.80;99.90;;;;;;5007418;28;20445;-68
2022/12/14 08:11:43;;;;;;;1999.90;999.90;;;0.90;99.90;;;;;;5008002;28;20532;-68
2022/12/14 08:14:13;;;;;;;1999.90;999.90;;;0.90;99.90;;;;;;5007813;28;20473;-68
2022/12/14 08:16:40;;;;;;;1999.90;999.90;;;1.00;99.90;;;;;;5014046;28;20450;-69
2022/12/14 08:19:07;;;;;;;1999.90;999.90;;;1.20;99.90;;;;;;5014801;28;21330;-68
2022/12/14 08:21:33;;;;;;;1999.90;999.90;;;1.30;99.90;;;;;;5016615;28;20441;-68
2022/12/14 08:24:00;;;;;;;1999.90;999.90;;;1.40;99.90;;;;;;5016692;28;20469;-68
2022/12/14 08:26:28;;;;;;;1999.90;999.90;;;1.40;99.90;;;;;;5015345;28;20495;-69
2022/12/14 08:28:56;;;;;;;1999.90;999.90;;;1.40;99.90;;;;;;5016415;28;20449;-69
2022/12/14 08:31:26;;;;;;;1999.90;999.90;;;1.30;99.90;;;;;;5016975;28;20446;-69
2022/12/14 08:33:54;;;;;;;1999.90;999.90;;;1.20;99.90;;;;;;5013519;28;20474;-68
2022/12/14 08:36:23;;;;;;;1999.90;999.90;;;1.10;99.90;;;;;;5016936;28;21010;-69
2022/12/14 08:38:52;;;;;;;1999.90;999.90;;;1.10;99.90;;;;;;5016677;28;20969;-69
2022/12/14 08:41:20;;;;;;;1999.90;999.90;;;1.20;99.90;;;;;;5018671;28;20453;-68
2022/12/14 08:43:50;;;;;;;1999.90;999.90;;;1.30;99.90;;;;;;5018616;28;20512;-68
2022/12/14 08:46:19;;;;;;;1999.90;999.90;;;1.20;99.90;;;;;;5021442;28;20527;-69
2022/12/14 08:48:46;;;;;;;1999.90;999.90;;;1.20;99.90;;;;;;5023612;28;20936;-67
2022/12/14 08:51:13;;;;;;;1999.90;999.90;;;1.30;99.90;;;;;;5010785;28;20449;-68
2022/12/14 08:53:40;;;;;;;1999.90;999.90;;;1.30;99.90;;;;;;5011026;28;20462;-69
2022/12/14 08:56:09;;;;;;;1999.90;999.90;;;1.20;99.90;;;;;;5011119;28;20445;-68
2022/12/14 08:58:36;;;;;;;1999.90;999.90;;;1.20;99.90;;;;;;5010353;28;21011;-69
2022/12/14 09:01:04;;;;;;;1999.90;999.90;;;1.20;99.90;;;;;;5010699;28;20445;-68
2022/12/14 09:03:33;;;;;;;1999.90;999.90;;;1.30;99.90;;;;;;5010493;28;21003;-68
2022/12/14 09:06:02;;;;;;;1999.90;999.90;;;1.30;99.90;;;;;;5010641;28;20460;-68
2022/12/14 09:08:30;;;;;;;1999.90;999.90;;;1.30;99.90;;;;;;5010671;28;20450;-68
2022/12/14 09:10:57;;;;;;;1999.90;999.90;;;1.20;99.90;;;;;;5012247;28;20453;-67
2022/12/14 09:13:24;;;;;;;1999.90;999.90;;;1.10;99.90;;;;;;5016850;28;20476;-68
2022/12/14 09:15:57;;;;;;;1999.90;999.90;;;1.20;99.90;;;;;;5017640;28;20454;-69
2022/12/14 09:18:23;;;;;;;1999.90;999.90;;;1.20;99.90;;;;;;5010547;28;20454;-68
2022/12/14 09:20:53;;;;;;;1999.90;999.90;;;1.30;99.90;;;;;;5013437;28;20457;-68
2022/12/14 09:23:20;;;;;;;1999.90;999.90;;;1.30;99.90;;;;;;5019193;28;20513;-66
2022/12/14 09:25:47;;;;;;;1999.90;999.90;;;1.30;99.90;;;;;;5019803;28;20441;-68
2022/12/14 09:28:14;;;;;;;1999.90;999.90;;;1.30;99.90;;;;;;5015054;28;20492;-69
2022/12/14 09:30:41;;;;;;;1999.90;999.90;;;1.40;99.90;;;;;;5019474;28;20499;-68
2022/12/14 09:33:07;;;;;;;1999.90;999.90;;;1.30;99.90;;;;;;5019948;28;20817;-68
2022/12/14 09:35:34;;;;;;;1999.90;999.90;;;1.30;99.90;;;;;;5019835;28;20441;-67
2022/12/14 09:38:02;;;;;;;1999.90;999.90;;;1.30;99.90;;;;;;5014577;28;20450;-68
2022/12/14 09:40:32;;;;;;;1999.90;999.90;;;1.30;99.90;;;;;;5009582;28;20550;-69
2022/12/14 09:43:03;;;;;;;1999.90;999.90;;;1.30;99.90;;;;;;5009982;28;20863;-68
2022/12/14 09:45:33;;;;;;;1999.90;999.90;;;1.30;99.90;;;;;;5011492;28;20441;-68
2022/12/14 09:48:07;;;;;;;1999.90;999.90;;;1.20;99.90;;;;;;5016698;28;20481;-68
2022/12/14 09:50:34;;;;;;;1999.90;999.90;;;1.20;99.90;;;;;;5009531;28;20445;-69
2022/12/14 09:53:06;;;;;;;1999.90;999.90;;;1.20;99.90;;;;;;5008648;28;20861;-68
2022/12/14 09:55:36;;;;;;;1999.90;999.90;;;1.20;99.90;;;;;;5009404;28;20438;-69
2022/12/14 09:58:07;;;;;;;1999.90;999.90;;;1.30;99.90;;;;;;5008323;28;20533;-68
2022/12/14 10:00:39;;;;;;;1999.90;999.90;;;1.20;99.90;;;;;;4999855;28;20452;-68
2022/12/14 10:03:32;;;;;;;1999.90;999.90;;;1.20;99.90;;;;;;5009900;28;20835;-68
2022/12/14 10:06:29;;;;;;;1999.90;999.90;;;1.20;99.90;;;;;;5009895;28;20460;-68
2022/12/14 10:09:03;;;;;;;1999.90;999.90;;;1.10;99.90;;;;;;5008027;28;20426;-68
2022/12/14 10:11:39;;;;;;;1999.90;999.90;;;1.10;99.90;;;;;;5008387;28;20442;-69
2022/12/14 10:14:18;;;;;;;1999.90;999.90;;;1.10;99.90;;;;;;4993832;28;20465;-69
2022/12/14 10:16:55;;;;;;;1999.90;999.90;;;1.20;99.90;;;;;;5009203;28;20446;-68
2022/12/14 10:19:35;;;;;;;1999.90;999.90;;;1.20;99.90;;;;;;5008928;28;20539;-68
2022/12/14 10:22:06;;;;;;;1999.90;999.90;;;0.90;99.90;;;;;;4994727;28;20442;-68
2022/12/14 10:24:40;;;;;;;1999.90;999.90;;;1.00;99.90;;;;;;5007150;28;20450;-68
2022/12/14 10:27:10;;;;;;;1999.90;999.90;;;1.10;99.90;;;;;;5008872;28;21073;-68
2022/12/14 10:29:43;;;;;;;1999.90;999.90;;;1.20;99.90;;;;;;5008708;28;21007;-68
2022/12/14 10:32:20;;;;;;;1999.90;999.90;;;1.20;99.90;;;;;;5004465;28;20452;-68
2022/12/14 10:34:47;;;;;;;1999.90;999.90;;;1.20;99.90;;;;;;4999595;28;20444;-69
2022/12/14 10:37:26;;;;;;;1999.90;999.90;;;1.30;99.90;;;;;;5004995;28;21198;-68
2022/12/14 10:40:13;;;;;;;1999.90;999.90;;;1.40;99.90;;;;;;5007081;28;20943;-67
2022/12/14 10:42:47;;;;;;;1999.90;999.90;;;1.30;99.90;;;;;;5017983;28;20866;-68
2022/12/14 10:45:27;;;;;;;1999.90;999.90;;;1.40;99.90;;;;;;5019218;28;20491;-68
2022/12/14 10:48:03;;;;;;;1999.90;999.90;;;1.40;99.90;;;;;;5018313;28;20512;-67
2022/12/14 10:50:40;;;;;;;1999.90;999.90;;;1.40;99.90;;;;;;5018015;28;20445;-68
2022/12/14 10:53:16;;;;;;;1999.90;999.90;;;1.50;99.90;;;;;;5016120;28;20519;-68
2022/12/14 10:55:47;;;;;;;1999.90;999.90;;;1.50;99.90;;;;;;5014874;28;20453;-67
2022/12/14 10:58:14;;;;;;;1999.90;999.90;;;1.50;99.90;;;;;;5016135;28;20450;-68
2022/12/14 11:00:40;;;;;;;1999.90;999.90;;;1.60;99.90;;;;;;5017689;28;20959;-68
2022/12/14 11:03:14;;;;;;;1999.90;999.90;;;1.70;99.90;;;;;;5017122;28;20528;-67
2022/12/14 11:05:46;;;;;;;1999.90;999.90;;;1.60;99.90;;;;;;5013292;28;20823;-68
2022/12/14 11:08:40;;;;;;;1999.90;999.90;;;1.70;99.90;;;;;;5015228;28;20489;-68
2022/12/14 11:11:15;;;;;;;1999.90;999.90;;;1.60;99.90;;;;;;5017828;28;20453;-67
2022/12/14 11:13:51;;;;;;;1999.90;999.90;;;1.70;99.90;;;;;;5017882;28;20460;-68
2022/12/14 11:16:24;;;;;;;1999.90;999.90;;;1.80;99.90;;;;;;5017488;28;20449;-68
2022/12/14 11:18:58;;;;;;;1999.90;999.90;;;1.90;99.90;;;;;;5014397;28;20451;-68
2022/12/14 11:21:34;;;;;;;1999.90;999.90;;;1.70;99.90;;;;;;5016176;28;20438;-68
2022/12/14 11:24:01;;;;;;;1999.90;999.90;;;1.60;99.90;;;;;;5013631;28;20465;-68
2022/12/14 11:26:40;;;;;;;1999.90;999.90;;;1.40;99.90;;;;;;5008318;28;20813;-69
2022/12/14 11:29:17;;;;;;;1999.90;999.90;;;1.20;99.90;;;;;;5007843;28;20453;-69
2022/12/14 11:31:46;;;;;;;1999.90;999.90;;;1.20;99.90;;;;;;5002611;28;21254;-69
2022/12/14 11:34:26;;;;;;;1999.90;999.90;;;1.20;99.90;;;;;;5016321;28;20464;-67
2022/12/14 11:36:52;;;;;;;1999.90;999.90;;;1.20;99.90;;;;;;5016476;28;20840;-69
2022/12/14 11:39:22;;;;;;;1999.90;999.90;;;1.20;99.90;;;;;;5017943;28;20448;-68
2022/12/14 11:41:59;;;;;;;1999.90;999.90;;;1.30;99.90;;;;;;5017127;28;20450;-68
2022/12/14 11:44:28;;;;;;;1999.90;999.90;;;1.30;99.90;;;;;;5012456;28;20464;-68
2022/12/14 11:47:03;;;;;;;1999.90;999.90;;;1.30;99.90;;;;;;5015221;28;20488;-68
2022/12/14 11:49:34;;;;;;;1999.90;999.90;;;1.30;99.90;;;;;;5015748;28;20476;-69
2022/12/14 11:52:09;;;;;;;1999.90;999.90;;;1.40;99.90;;;;;;5018149;28;20457;-73
2022/12/14 11:54:37;;;;;;;1999.90;999.90;;;1.40;99.90;;;;;;5015825;28;20468;-68
2022/12/14 11:57:09;;;;;;;1999.90;999.90;;;1.50;99.90;;;;;;5016437;28;20441;-68
2022/12/14 11:59:44;;;;;;;1999.90;999.90;;;1.50;99.90;;;;;;5015340;28;20819;-68
2022/12/14 12:02:22;;;;;;;1999.90;999.90;;;1.50;99.90;;;;;;5014034;28;20445;-69
2022/12/14 12:04:54;;;;;;;1999.90;999.90;;;1.50;99.90;;;;;;5015648;28;20449;-68
2022/12/14 12:07:27;;;;;;;1999.90;999.90;;;1.50;99.90;;;;;;5007217;28;20491;-67
2022/12/14 12:09:54;;;;;;;1999.90;999.90;;;1.40;99.90;;;;;;5007310;28;20449;-68
2022/12/14 12:12:23;;;;;;;1999.90;999.90;;;1.30;99.90;;;;;;5007178;28;21011;-68
2022/12/14 12:14:55;;;;;;;1999.90;999.90;;;1.40;99.90;;;;;;5007620;28;20445;-68
2022/12/14 12:17:41;;;;;;;1999.90;999.90;;;1.40;99.90;;;;;;5011252;28;21102;-68
2022/12/14 12:20:28;;;;;;;1999.90;999.90;;;1.40;99.90;;;;;;5011834;28;20448;-69
2022/12/14 12:22:59;;;;;;;1999.90;999.90;;;1.40;99.90;;;;;;5012593;28;20474;-69
2022/12/14 12:25:30;;;;;;;1999.90;999.90;;;1.50;99.90;;;;;;5012401;28;20460;-69
2022/12/14 12:28:11;;;;;;;1999.90;999.90;;;1.60;99.90;;;;;;5012427;28;20485;-68
2022/12/14 12:30:43;;;;;;;1999.90;999.90;;;1.60;99.90;;;;;;5012548;28;20452;-68
2022/12/14 12:33:24;;;;;;;1999.90;999.90;;;1.60;99.90;;;;;;5012456;28;20461;-68
2022/12/14 12:35:53;;;;;;;1999.90;999.90;;;1.50;99.90;;;;;;5012639;28;20970;-69